createdAt,value
2023-04-07T00:02:14.075Z,95.92
2023-04-07T00:04:41.013Z,95.98
2023-04-07T00:07:07.859Z,96.20
2023-04-07T00:09:34.839Z,96.48
2023-04-07T00:12:03.019Z,96.18
2023-04-07T00:14:29.917Z,95.85
2023-04-07T00:16:57.013Z,95.99
2023-04-07T00:19:23.962Z,96.31
2023-04-07T00:21:50.682Z,96.11
2023-04-07T00:24:33.276Z,96.16
2023-04-07T00:27:01.250Z,95.78
2023-04-07T00:29:28.122Z,96.37
2023-04-07T00:31:54.982Z,95.62
2023-04-07T00:34:21.874Z,95.97
2023-04-07T00:36:52.414Z,95.74
2023-04-07T00:39:21.698Z,96.08
2023-04-07T00:41:48.720Z,95.83
2023-04-07T00:44:15.692Z,95.54
2023-04-07T00:46:42.889Z,96.15
2023-04-07T00:49:11.337Z,96.13
2023-04-07T00:51:38.490Z,95.57
2023-04-07T00:54:06.543Z,95.78
2023-04-07T00:56:35.711Z,95.67
2023-04-07T00:59:07.610Z,95.80
2023-04-07T01:01:48.953Z,95.99
2023-04-07T01:04:32.816Z,95.76
2023-04-07T01:07:14.917Z,95.61
2023-04-07T01:09:48.188Z,95.17
2023-04-07T01:12:44.327Z,95.63
2023-04-07T01:15:15.499Z,95.02
2023-04-07T01:18:03.565Z,95.11
2023-04-07T01:20:33.681Z,95.46
2023-04-07T01:23:08.734Z,95.22
2023-04-07T01:26:19.874Z,95.49
2023-04-07T01:29:13.515Z,95.15
2023-04-07T01:31:42.252Z,95.38
2023-04-07T01:34:13.553Z,95.78
2023-04-07T01:36:41.603Z,95.53
2023-04-07T01:39:10.099Z,95.21
2023-04-07T01:41:38.896Z,95.35
2023-04-07T01:44:08.064Z,95.54
2023-04-07T01:46:38.183Z,95.42
2023-04-07T01:49:05.857Z,95.36
2023-04-07T01:51:34.132Z,95.65
2023-04-07T01:54:02.418Z,95.45
2023-04-07T01:56:29.540Z,95.38
2023-04-07T01:58:57.246Z,95.08
2023-04-07T02:01:29.810Z,95.34
2023-04-07T02:04:08.099Z,95.28
2023-04-07T02:06:59.588Z,95.07
2023-04-07T02:09:28.868Z,94.79
2023-04-07T02:11:58.739Z,95.00
2023-04-07T02:14:26.213Z,95.02
2023-04-07T02:16:55.231Z,95.01
2023-04-07T02:19:25.074Z,95.18
2023-04-07T02:21:55.021Z,95.27
2023-04-07T02:24:23.987Z,95.15
2023-04-07T02:26:53.652Z,95.32
2023-04-07T02:29:20.692Z,95.50
2023-04-07T02:31:49.867Z,95.35
2023-04-07T02:34:16.868Z,95.41
2023-04-07T02:36:43.786Z,95.62
2023-04-07T02:39:12.894Z,95.43
2023-04-07T02:41:42.421Z,95.17
2023-04-07T02:44:09.080Z,95.13
2023-04-07T02:46:38.763Z,95.46
2023-04-07T02:49:05.524Z,95.27
2023-04-07T02:51:32.482Z,94.93
2023-04-07T02:54:02.189Z,95.33
2023-04-07T02:56:29.415Z,94.98
2023-04-07T02:58:56.267Z,95.44
2023-04-07T03:01:23.344Z,95.14
2023-04-07T03:03:53.338Z,95.30
2023-04-07T03:06:25.581Z,95.17
2023-04-07T03:08:52.624Z,94.72
2023-04-07T03:11:21.658Z,94.94
2023-04-07T03:13:48.700Z,95.02
2023-04-07T03:16:17.822Z,94.98
2023-04-07T03:18:47.290Z,95.08
2023-04-07T03:21:16.380Z,95.05
2023-04-07T03:23:45.996Z,95.21
2023-04-07T03:26:15.614Z,95.40
2023-04-07T03:28:42.517Z,94.88
2023-04-07T03:31:11.412Z,95.23
2023-04-07T03:33:38.245Z,95.16
2023-04-07T03:36:05.407Z,95.38
2023-04-07T03:38:32.264Z,95.44
2023-04-07T03:40:59.009Z,95.63
2023-04-07T03:43:28.214Z,95.57
2023-04-07T03:45:55.094Z,95.35
2023-04-07T03:48:22.179Z,95.10
2023-04-07T03:50:48.979Z,95.12
2023-04-07T03:53:16.915Z,95.03
2023-04-07T03:55:44.757Z,95.44
2023-04-07T03:58:12.409Z,94.98
2023-04-07T04:00:42.746Z,95.51
2023-04-07T04:03:10.278Z,94.87
2023-04-07T04:05:37.419Z,95.44
2023-04-07T04:08:04.242Z,95.37
2023-04-07T04:10:31.345Z,95.01
2023-04-07T04:13:00.973Z,95.17
2023-04-07T04:15:30.870Z,94.85
2023-04-07T04:17:57.699Z,95.07
2023-04-07T04:20:24.588Z,95.26
2023-04-07T04:22:51.401Z,95.35
2023-04-07T04:25:18.368Z,95.13
2023-04-07T04:27:45.751Z,95.42
2023-04-07T04:30:15.072Z,95.23
2023-04-07T04:32:42.006Z,94.86
2023-04-07T04:35:12.296Z,95.25
2023-04-07T04:37:39.285Z,94.93
2023-04-07T04:40:09.531Z,95.13
2023-04-07T04:42:42.009Z,95.55
2023-04-07T04:45:12.334Z,94.88
2023-04-07T04:47:39.271Z,95.52
2023-04-07T04:50:08.871Z,95.13
2023-04-07T04:52:41.029Z,95.21
2023-04-07T04:55:12.835Z,95.44
2023-04-07T04:57:43.448Z,95.43
2023-04-07T05:00:11.081Z,95.45
2023-04-07T05:02:38.268Z,95.32
2023-04-07T05:05:06.221Z,95.82
2023-04-07T05:07:33.118Z,95.48
2023-04-07T05:10:04.177Z,95.32
2023-04-07T05:12:31.166Z,95.45
2023-04-07T05:15:00.219Z,95.35
2023-04-07T05:17:36.915Z,95.66
2023-04-07T05:20:04.779Z,95.75
2023-04-07T05:22:31.770Z,95.51
2023-04-07T05:24:58.556Z,95.33
2023-04-07T05:27:27.645Z,95.85
2023-04-07T05:29:54.467Z,95.57
2023-04-07T05:32:21.299Z,95.97
2023-04-07T05:34:48.176Z,95.60
2023-04-07T05:37:14.954Z,95.39
2023-04-07T05:39:49.712Z,95.45
2023-04-07T05:42:22.621Z,95.63
2023-04-07T05:44:49.518Z,95.80
2023-04-07T05:47:16.408Z,95.69
2023-04-07T05:49:46.321Z,95.69
2023-04-07T05:52:16.312Z,95.93
2023-04-07T05:54:43.172Z,95.85
2023-04-07T05:57:10.144Z,96.00
2023-04-07T05:59:36.935Z,95.88
2023-04-07T06:02:05.293Z,95.88
2023-04-07T06:04:33.011Z,95.86
2023-04-07T06:07:02.317Z,95.65
2023-04-07T06:09:31.529Z,95.73
2023-04-07T06:12:01.752Z,95.98
2023-04-07T06:14:28.629Z,95.92
2023-04-07T06:16:58.432Z,95.58
2023-04-07T06:19:25.455Z,95.60
2023-04-07T06:21:53.573Z,95.88
2023-04-07T06:24:25.459Z,95.57
2023-04-07T06:26:55.405Z,96.03
2023-04-07T06:29:22.660Z,95.82
2023-04-07T06:31:49.564Z,95.92
2023-04-07T06:34:16.878Z,95.93
2023-04-07T06:36:44.006Z,95.40
2023-04-07T06:39:11.051Z,95.65
2023-04-07T06:41:39.453Z,95.83
2023-04-07T06:44:09.638Z,95.54
2023-04-07T06:46:48.178Z,95.68
2023-04-07T06:49:18.331Z,95.16
2023-04-07T06:51:45.214Z,95.38
2023-04-07T06:54:14.911Z,95.47
2023-04-07T06:56:42.819Z,94.70
2023-04-07T06:59:10.405Z,94.24
2023-04-07T07:01:38.087Z,94.43
2023-04-07T07:04:08.233Z,94.15
2023-04-07T07:06:37.854Z,93.84
2023-04-07T07:09:06.750Z,94.32
2023-04-07T07:11:33.813Z,94.03
2023-04-07T07:14:00.459Z,94.18
2023-04-07T07:16:27.158Z,93.98
2023-04-07T07:18:53.827Z,93.76
2023-04-07T07:21:23.746Z,93.64
2023-04-07T07:23:50.566Z,93.29
2023-04-07T07:26:17.233Z,93.29
2023-04-07T07:28:47.121Z,92.84
2023-04-07T07:31:16.962Z,92.27
2023-04-07T07:33:46.120Z,92.22
2023-04-07T07:36:12.965Z,91.81
2023-04-07T07:38:39.981Z,91.59
2023-04-07T07:41:07.421Z,91.55
2023-04-07T07:43:34.125Z,91.63
2023-04-07T07:46:01.025Z,91.50
2023-04-07T07:48:27.612Z,91.30
2023-04-07T07:50:56.930Z,90.58
2023-04-07T07:53:23.707Z,90.83
2023-04-07T07:55:50.473Z,90.50
2023-04-07T07:58:17.104Z,90.44
2023-04-07T08:00:46.049Z,90.07
2023-04-07T08:03:12.924Z,90.32
2023-04-07T08:05:42.803Z,89.36
2023-04-07T08:08:09.426Z,89.14
2023-04-07T08:10:38.476Z,89.42
2023-04-07T08:13:07.302Z,89.43
2023-04-07T08:15:33.938Z,88.94
2023-04-07T08:18:04.839Z,89.50
2023-04-07T08:20:32.117Z,89.02
2023-04-07T08:22:59.679Z,88.80
2023-04-07T08:25:26.387Z,88.15
2023-04-07T08:27:53.157Z,88.58
2023-04-07T08:30:21.167Z,87.68
2023-04-07T08:32:47.824Z,87.75
2023-04-07T08:35:16.669Z,87.31
2023-04-07T08:37:44.449Z,87.20
2023-04-07T08:40:14.842Z,86.68
2023-04-07T08:42:46.405Z,86.70
2023-04-07T08:45:18.654Z,86.78
2023-04-07T08:47:47.871Z,87.03
2023-04-07T08:50:17.589Z,86.63
2023-04-07T08:53:00.720Z,86.88
2023-04-07T08:55:29.592Z,86.71
2023-04-07T08:57:57.363Z,86.24
2023-04-07T09:00:24.330Z,85.90
2023-04-07T09:02:51.905Z,85.75
2023-04-07T09:05:18.792Z,85.65
2023-04-07T09:07:45.423Z,85.58
2023-04-07T09:10:14.353Z,86.11
2023-04-07T09:12:45.705Z,85.96
2023-04-07T09:15:12.268Z,85.97
2023-04-07T09:17:38.994Z,85.64
2023-04-07T09:20:06.111Z,85.26
2023-04-07T09:22:38.273Z,84.99
2023-04-07T09:25:15.474Z,84.86
2023-04-07T09:27:54.406Z,84.71
2023-04-07T09:30:21.353Z,83.85
2023-04-07T09:32:48.267Z,83.46
2023-04-07T09:35:14.953Z,83.80
2023-04-07T09:37:42.633Z,84.47
2023-04-07T09:40:11.850Z,84.51
2023-04-07T09:42:48.435Z,84.34
2023-04-07T09:45:33.924Z,84.07
2023-04-07T09:48:06.138Z,83.89
2023-04-07T09:50:37.747Z,83.69
2023-04-07T09:53:05.003Z,83.40
2023-04-07T09:55:35.469Z,82.58
2023-04-07T09:58:03.527Z,82.11
2023-04-07T10:00:30.613Z,81.55
2023-04-07T10:03:00.453Z,81.70
2023-04-07T10:05:28.786Z,81.83
2023-04-07T10:07:56.200Z,81.61
2023-04-07T10:10:25.933Z,81.96
2023-04-07T10:12:55.522Z,81.85
2023-04-07T10:15:23.207Z,82.14
2023-04-07T10:17:57.026Z,81.24
2023-04-07T10:20:24.446Z,81.78
2023-04-07T10:22:53.889Z,81.82
2023-04-07T10:25:25.809Z,81.16
2023-04-07T10:28:00.711Z,81.37
2023-04-07T10:30:30.703Z,81.42
2023-04-07T10:33:00.171Z,81.96
2023-04-07T10:35:27.040Z,82.15
2023-04-07T10:38:08.726Z,82.40
2023-04-07T10:40:36.444Z,82.27
2023-04-07T10:43:09.745Z,82.35
2023-04-07T10:45:48.738Z,82.25
2023-04-07T10:48:17.400Z,82.13
2023-04-07T10:51:10.738Z,82.03
2023-04-07T10:53:38.412Z,82.04
2023-04-07T10:56:05.926Z,82.20
2023-04-07T10:58:35.070Z,82.28
2023-04-07T11:01:04.858Z,82.55
2023-04-07T11:03:36.533Z,82.38
2023-04-07T11:06:08.466Z,82.44
2023-04-07T11:08:43.546Z,82.21
2023-04-07T11:11:12.483Z,82.07
2023-04-07T11:13:43.430Z,81.95
2023-04-07T11:16:10.613Z,82.23
2023-04-07T11:18:37.622Z,82.07
2023-04-07T11:21:07.169Z,81.96
2023-04-07T11:23:42.621Z,81.29
2023-04-07T11:26:11.592Z,80.77
2023-04-07T11:28:49.556Z,80.21
2023-04-07T11:31:26.861Z,79.74
2023-04-07T11:33:59.400Z,79.79
2023-04-07T11:36:40.548Z,80.12
2023-04-07T11:39:21.786Z,80.61
2023-04-07T11:41:53.721Z,80.68
2023-04-07T11:44:20.490Z,80.37
2023-04-07T11:47:03.591Z,80.53
2023-04-07T11:49:31.794Z,80.04
2023-04-07T11:52:04.326Z,80.29
2023-04-07T11:54:47.210Z,80.80
2023-04-07T11:57:14.641Z,80.82
2023-04-07T11:59:43.651Z,81.17
2023-04-07T12:02:10.428Z,80.97
2023-04-07T12:04:40.967Z,81.16
2023-04-07T12:07:11.722Z,80.88
2023-04-07T12:09:39.032Z,80.76
2023-04-07T12:12:07.758Z,79.95
2023-04-07T12:14:37.253Z,79.41
2023-04-07T12:17:04.433Z,78.74
2023-04-07T12:19:34.915Z,78.42
2023-04-07T12:22:01.609Z,78.17
2023-04-07T12:24:32.316Z,78.44
2023-04-07T12:26:59.784Z,78.94
2023-04-07T12:29:30.044Z,79.21
2023-04-07T12:31:57.586Z,79.26
2023-04-07T12:34:24.201Z,78.93
2023-04-07T12:36:52.989Z,78.55
2023-04-07T12:39:19.584Z,78.74
2023-04-07T12:41:49.290Z,78.22
2023-04-07T12:44:16.698Z,78.54
2023-04-07T12:46:43.536Z,78.64
2023-04-07T12:49:12.583Z,79.26
2023-04-07T12:51:40.249Z,79.46
2023-04-07T12:54:07.016Z,79.38
2023-04-07T12:56:33.634Z,79.38
2023-04-07T12:59:00.252Z,79.11
2023-04-07T13:01:27.241Z,79.13
2023-04-07T13:03:54.401Z,79.02
2023-04-07T13:06:21.136Z,78.86
2023-04-07T13:08:47.740Z,79.16
2023-04-07T13:11:14.393Z,78.99
2023-04-07T13:13:43.416Z,77.56
2023-04-07T13:16:12.521Z,77.83
2023-04-07T13:18:39.115Z,77.85
2023-04-07T13:21:40.354Z,77.85
2023-04-07T13:23:52.755Z,77.99
2023-04-07T13:26:19.341Z,77.48
2023-04-07T13:28:46.257Z,77.59
2023-04-07T13:31:16.028Z,77.20
2023-04-07T13:33:43.079Z,77.58
2023-04-07T13:36:09.850Z,78.00
2023-04-07T13:38:42.382Z,78.18
2023-04-07T13:41:08.909Z,78.54
2023-04-07T13:43:35.798Z,79.04
2023-04-07T13:46:02.435Z,79.15
2023-04-07T13:48:29.172Z,79.22
2023-04-07T13:50:56.047Z,79.03
2023-04-07T13:53:23.149Z,79.12
2023-04-07T13:55:49.741Z,79.14
2023-04-07T13:58:16.940Z,79.14
2023-04-07T14:00:46.281Z,78.14
2023-04-07T14:03:13.119Z,78.28
2023-04-07T14:05:39.817Z,78.27
2023-04-07T14:08:06.385Z,77.51
2023-04-07T14:10:34.007Z,77.45
2023-04-07T14:13:03.045Z,77.78
2023-04-07T14:15:32.546Z,77.73
2023-04-07T14:18:00.852Z,77.53
2023-04-07T14:20:27.630Z,77.80
2023-04-07T14:22:54.930Z,77.68
2023-04-07T14:25:22.837Z,77.90
2023-04-07T14:27:50.387Z,78.09
2023-04-07T14:30:18.750Z,77.99
2023-04-07T14:32:45.874Z,78.19
2023-04-07T14:35:13.623Z,78.33
2023-04-07T14:37:42.518Z,78.26
2023-04-07T14:40:11.900Z,78.17
2023-04-07T14:42:38.526Z,77.93
2023-04-07T14:45:05.541Z,77.80
2023-04-07T14:47:32.133Z,77.33
2023-04-07T14:49:58.735Z,77.43
2023-04-07T14:52:25.958Z,77.38
2023-04-07T14:54:52.575Z,77.57
2023-04-07T14:57:22.433Z,77.75
2023-04-07T14:59:49.029Z,77.60
2023-04-07T15:02:15.832Z,78.04
2023-04-07T15:04:47.382Z,77.78
2023-04-07T15:07:14.074Z,78.11
2023-04-07T15:09:49.014Z,77.93
2023-04-07T15:12:15.720Z,77.70
2023-04-07T15:14:46.070Z,78.18
2023-04-07T15:17:15.532Z,78.02
2023-04-07T15:19:44.428Z,78.48
2023-04-07T15:22:11.055Z,78.75
2023-04-07T15:24:38.060Z,78.78
2023-04-07T15:27:07.534Z,79.00
2023-04-07T15:29:37.358Z,79.17
2023-04-07T15:32:08.692Z,79.05
2023-04-07T15:34:35.297Z,79.41
2023-04-07T15:37:03.957Z,79.30
2023-04-07T15:39:33.021Z,79.32
2023-04-07T15:42:02.434Z,79.38
2023-04-07T15:44:29.066Z,79.20
2023-04-07T15:46:55.948Z,79.36
2023-04-07T15:49:24.324Z,79.42
2023-04-07T15:51:52.631Z,79.64
2023-04-07T15:54:19.323Z,79.72
2023-04-07T15:56:46.079Z,79.87
2023-04-07T15:59:12.775Z,79.64
2023-04-07T16:01:39.661Z,79.68
2023-04-07T16:04:06.587Z,79.59
2023-04-07T16:06:33.639Z,79.22
2023-04-07T16:09:02.518Z,79.10
2023-04-07T16:11:31.649Z,79.14
2023-04-07T16:14:00.827Z,79.12
2023-04-07T16:16:27.493Z,79.25
2023-04-07T16:18:54.204Z,79.14
2023-04-07T16:21:23.782Z,79.28
2023-04-07T16:23:50.669Z,78.75
2023-04-07T16:26:17.451Z,79.27
2023-04-07T16:28:44.324Z,79.68
2023-04-07T16:31:13.558Z,79.55
2023-04-07T16:33:42.588Z,79.89
2023-04-07T16:36:10.452Z,80.06
2023-04-07T16:38:39.401Z,79.99
2023-04-07T16:41:07.879Z,80.02
2023-04-07T16:43:36.888Z,80.09
2023-04-07T16:46:04.544Z,80.16
2023-04-07T16:48:31.472Z,80.59
2023-04-07T16:50:59.147Z,80.55
2023-04-07T16:53:27.653Z,80.53
2023-04-07T16:55:57.699Z,80.22
2023-04-07T16:58:25.119Z,80.27
2023-04-07T17:00:52.094Z,80.58
2023-04-07T17:03:19.634Z,80.25
2023-04-07T17:05:48.584Z,80.42
2023-04-07T17:08:17.450Z,80.38
2023-04-07T17:10:45.790Z,80.73
2023-04-07T17:13:13.782Z,80.85
2023-04-07T17:15:40.523Z,80.67
2023-04-07T17:18:09.436Z,81.00
2023-04-07T17:20:36.919Z,80.69
2023-04-07T17:23:05.165Z,81.23
2023-04-07T17:25:32.002Z,81.12
2023-04-07T17:28:01.260Z,81.33
2023-04-07T17:30:28.699Z,80.91
2023-04-07T17:32:56.873Z,81.14
2023-04-07T17:35:25.350Z,81.12
2023-04-07T17:37:53.741Z,81.33
2023-04-07T17:40:25.476Z,81.40
2023-04-07T17:42:55.289Z,81.57
2023-04-07T17:45:23.228Z,81.67
2023-04-07T17:47:51.880Z,81.58
2023-04-07T17:50:19.687Z,81.88
2023-04-07T17:52:47.782Z,81.61
2023-04-07T17:55:15.002Z,81.86
2023-04-07T17:57:44.985Z,81.82
2023-04-07T18:00:12.247Z,82.07
2023-04-07T18:02:40.355Z,81.80
2023-04-07T18:05:10.036Z,82.25
2023-04-07T18:07:36.749Z,82.38
2023-04-07T18:10:03.743Z,82.20
2023-04-07T18:12:32.579Z,82.17
2023-04-07T18:14:59.203Z,82.18
2023-04-07T18:17:27.915Z,82.56
2023-04-07T18:19:57.824Z,82.43
2023-04-07T18:22:24.618Z,82.40
2023-04-07T18:24:51.676Z,82.60
2023-04-07T18:27:18.296Z,82.95
2023-04-07T18:29:44.865Z,82.62
2023-04-07T18:32:16.276Z,82.88
2023-04-07T18:34:43.062Z,82.76
2023-04-07T18:37:12.090Z,82.79
2023-04-07T18:39:40.948Z,82.96
2023-04-07T18:42:07.587Z,83.06
2023-04-07T18:44:34.242Z,83.08
2023-04-07T18:47:03.003Z,83.52
2023-04-07T18:49:33.188Z,83.37
2023-04-07T18:51:59.825Z,82.91
2023-04-07T18:54:28.196Z,83.26
2023-04-07T18:56:54.926Z,83.50
2023-04-07T18:59:21.896Z,83.84
2023-04-07T19:01:48.585Z,83.86
2023-04-07T19:04:16.443Z,84.23
2023-04-07T19:06:43.085Z,83.78
2023-04-07T19:09:11.808Z,83.70
2023-04-07T19:11:38.521Z,83.80
2023-04-07T19:14:05.981Z,84.00
2023-04-07T19:16:34.145Z,84.25
2023-04-07T19:19:00.943Z,84.60
2023-04-07T19:21:27.712Z,84.53
2023-04-07T19:23:56.883Z,84.54
2023-04-07T19:26:23.445Z,84.54
2023-04-07T19:28:50.193Z,84.38
2023-04-07T19:31:16.822Z,84.29
2023-04-07T19:33:45.900Z,84.65
2023-04-07T19:36:12.519Z,84.57
2023-04-07T19:38:39.148Z,85.08
2023-04-07T19:41:06.369Z,85.22
2023-04-07T19:43:32.906Z,85.36
2023-04-07T19:45:59.549Z,85.59
2023-04-07T19:48:26.577Z,85.62
2023-04-07T19:50:53.342Z,85.94
2023-04-07T19:53:20.105Z,85.81
2023-04-07T19:55:47.137Z,85.99
2023-04-07T19:58:21.115Z,85.94
2023-04-07T20:00:50.749Z,86.26
2023-04-07T20:03:20.842Z,85.81
2023-04-07T20:05:47.702Z,86.30
2023-04-07T20:08:14.447Z,85.91
2023-04-07T20:10:43.630Z,86.30
2023-04-07T20:13:11.296Z,85.93
2023-04-07T20:15:37.974Z,85.95
2023-04-07T20:18:04.683Z,86.21
2023-04-07T20:20:31.367Z,85.95
2023-04-07T20:22:57.971Z,86.15
2023-04-07T20:25:24.730Z,86.29
2023-04-07T20:27:51.330Z,86.59
2023-04-07T20:30:18.036Z,86.37
2023-04-07T20:32:47.065Z,86.58
2023-04-07T20:35:16.652Z,86.88
2023-04-07T20:37:44.491Z,86.55
2023-04-07T20:40:11.791Z,86.97
2023-04-07T20:42:40.905Z,87.04
2023-04-07T20:45:07.983Z,86.57
2023-04-07T20:47:36.647Z,86.69
2023-04-07T20:50:08.317Z,86.97
2023-04-07T20:52:39.524Z,86.86
2023-04-07T20:55:07.526Z,86.90
2023-04-07T20:57:34.071Z,86.94
2023-04-07T21:00:01.291Z,86.75
2023-04-07T21:02:33.216Z,87.15
2023-04-07T21:04:59.925Z,87.05
2023-04-07T21:07:26.648Z,86.98
2023-04-07T21:09:53.476Z,87.19
2023-04-07T21:12:20.223Z,87.20
2023-04-07T21:14:47.008Z,87.54
2023-04-07T21:17:14.164Z,87.74
2023-04-07T21:19:41.166Z,87.25
2023-04-07T21:22:07.950Z,87.29
2023-04-07T21:24:34.579Z,87.49
2023-04-07T21:27:01.210Z,87.74
2023-04-07T21:29:31.434Z,87.35
2023-04-07T21:31:58.456Z,87.92
2023-04-07T21:34:25.617Z,88.11
2023-04-07T21:36:57.190Z,87.85
2023-04-07T21:39:23.902Z,88.17
2023-04-07T21:41:50.538Z,87.60
2023-04-07T21:44:21.599Z,87.60
2023-04-07T21:46:48.729Z,87.59
2023-04-07T21:49:17.973Z,88.15
2023-04-07T21:51:44.665Z,88.20
2023-04-07T21:54:12.486Z,88.01
2023-04-07T21:56:39.125Z,88.43
2023-04-07T21:59:06.347Z,88.42
2023-04-07T22:01:33.217Z,88.29
2023-04-07T22:04:00.255Z,88.67
2023-04-07T22:06:27.264Z,88.37
2023-04-07T22:09:01.940Z,88.06
2023-04-07T22:11:29.466Z,88.59
2023-04-07T22:13:58.550Z,88.57
2023-04-07T22:16:25.371Z,88.64
2023-04-07T22:18:52.327Z,88.49
2023-04-07T22:21:19.186Z,88.80
2023-04-07T22:23:49.898Z,88.76
2023-04-07T22:26:17.412Z,88.84
2023-04-07T22:28:44.038Z,88.68
2023-04-07T22:31:13.187Z,88.73
2023-04-07T22:33:39.949Z,88.89
2023-04-07T22:36:11.212Z,89.25
2023-04-07T22:38:40.154Z,89.03
2023-04-07T22:41:06.832Z,89.06
2023-04-07T22:43:35.809Z,89.41
2023-04-07T22:46:02.639Z,89.02
2023-04-07T22:48:31.636Z,89.33
2023-04-07T22:50:58.442Z,89.14
2023-04-07T22:53:25.159Z,89.64
2023-04-07T22:55:52.004Z,89.76
2023-04-07T22:58:20.816Z,89.35
2023-04-07T23:00:47.566Z,89.43
2023-04-07T23:03:15.166Z,89.52
2023-04-07T23:05:42.156Z,89.58
2023-04-07T23:08:11.362Z,89.82
2023-04-07T23:10:37.970Z,89.90
2023-04-07T23:13:04.658Z,89.97
2023-04-07T23:15:33.681Z,90.52
2023-04-07T23:18:00.592Z,90.43
2023-04-07T23:20:29.755Z,90.40
2023-04-07T23:22:56.581Z,90.52
2023-04-07T23:25:23.292Z,90.39
2023-04-07T23:27:50.291Z,90.49
2023-04-07T23:30:17.093Z,90.29
2023-04-07T23:32:43.827Z,90.88
2023-04-07T23:35:10.921Z,90.42
2023-04-07T23:37:37.540Z,90.43
2023-04-07T23:40:05.523Z,90.76
2023-04-07T23:42:32.180Z,90.93
2023-04-07T23:45:03.629Z,91.03
2023-04-07T23:47:32.651Z,91.03
2023-04-07T23:50:00.383Z,90.78
2023-04-07T23:52:27.133Z,91.44
2023-04-07T23:54:53.874Z,90.96
2023-04-07T23:57:20.578Z,91.16
2023-04-07T23:59:49.383Z,91.56
